createdAt,value
2018-02-03T00:02:22.248Z,6.30
2018-02-03T00:04:48.239Z,6.03
2018-02-03T00:07:14.224Z,5.80
2018-02-03T00:09:40.261Z,6.50
2018-02-03T00:12:06.235Z,5.80
2018-02-03T00:14:32.200Z,5.73
2018-02-03T00:16:58.899Z,7.73
2018-02-03T00:19:25.636Z,7.27
2018-02-03T00:21:51.576Z,5.97
2018-02-03T00:24:17.515Z,6.23
2018-02-03T00:26:43.488Z,5.80
2018-02-03T00:29:09.428Z,6.43
2018-02-03T00:31:35.444Z,5.80
2018-02-03T00:34:01.403Z,6.50
2018-02-03T00:36:27.351Z,6.60
2018-02-03T00:38:54.148Z,6.80
2018-02-03T00:41:20.095Z,6.67
2018-02-03T00:43:46.035Z,6.63
2018-02-03T00:46:12.017Z,6.30
2018-02-03T00:48:38.716Z,6.60
2018-02-03T00:51:04.711Z,6.87
2018-02-03T00:53:30.647Z,7.37
2018-02-03T00:55:56.642Z,7.23
2018-02-03T00:58:22.609Z,6.50
2018-02-03T01:00:49.292Z,6.63
2018-02-03T01:03:15.288Z,5.97
2018-02-03T01:05:41.980Z,7.27
2018-02-03T01:08:07.968Z,5.50
2018-02-03T01:10:33.960Z,7.00
2018-02-03T01:12:59.917Z,7.50
2018-02-03T01:15:25.920Z,6.70
2018-02-03T01:17:51.929Z,7.10
2018-02-03T01:20:18.661Z,7.23
2018-02-03T01:22:44.668Z,6.13
2018-02-03T01:25:10.676Z,6.27
2018-02-03T01:27:36.667Z,6.60
2018-02-03T01:30:02.619Z,6.37
2018-02-03T01:32:29.368Z,6.40
2018-02-03T01:34:56.104Z,7.30
2018-02-03T01:37:22.109Z,6.07
2018-02-03T01:39:48.061Z,7.67
2018-02-03T01:42:14.052Z,6.57
2018-02-03T01:44:40.000Z,7.00
2018-02-03T01:47:06.041Z,6.17
2018-02-03T01:49:32.022Z,6.50
2018-02-03T01:51:58.027Z,6.97
2018-02-03T01:54:23.993Z,5.97
2018-02-03T01:56:49.945Z,6.77
2018-02-03T01:59:16.656Z,6.27
2018-02-03T02:01:42.642Z,7.00
2018-02-03T02:04:09.350Z,6.97
2018-02-03T02:06:35.381Z,5.60
2018-02-03T02:09:01.372Z,6.97
2018-02-03T02:11:28.079Z,6.33
2018-02-03T02:13:54.052Z,7.10
2018-02-03T02:16:20.766Z,7.10
2018-02-03T02:18:46.749Z,7.60
2018-02-03T02:21:13.500Z,6.37
2018-02-03T02:23:40.221Z,7.23
2018-02-03T02:26:06.277Z,6.93
2018-02-03T02:28:32.220Z,6.70
2018-02-03T02:30:58.908Z,6.40
2018-02-03T02:33:24.895Z,6.07
2018-02-03T02:35:50.900Z,6.67
2018-02-03T02:38:16.897Z,7.00
2018-02-03T02:40:43.587Z,6.20
2018-02-03T02:43:09.604Z,6.87
2018-02-03T02:45:35.656Z,6.53
2018-02-03T02:48:01.657Z,6.60
2018-02-03T02:50:28.404Z,7.33
2018-02-03T02:52:55.099Z,6.77
2018-02-03T02:55:21.071Z,7.43
2018-02-03T02:57:47.056Z,7.23
2018-02-03T03:00:13.003Z,7.60
2018-02-03T03:02:39.040Z,7.47
2018-02-03T03:05:04.997Z,7.03
2018-02-03T03:07:30.988Z,8.13
2018-02-03T03:09:56.956Z,7.30
2018-02-03T03:12:22.940Z,7.90
2018-02-03T03:14:49.627Z,7.73
2018-02-03T03:17:15.616Z,8.70
2018-02-03T03:19:41.573Z,7.87
2018-02-03T03:22:08.347Z,7.80
2018-02-03T03:24:34.393Z,7.33
2018-02-03T03:27:00.380Z,8.67
2018-02-03T03:29:26.376Z,7.63
2018-02-03T03:31:52.376Z,8.10
2018-02-03T03:34:19.084Z,8.70
2018-02-03T03:36:45.073Z,8.57
2018-02-03T03:39:11.012Z,8.47
2018-02-03T03:41:37.096Z,8.70
2018-02-03T03:44:03.124Z,8.83
2018-02-03T03:46:29.112Z,8.30
2018-02-03T03:48:55.804Z,8.27
2018-02-03T03:51:21.800Z,9.40
2018-02-03T03:53:48.515Z,7.50
2018-02-03T03:56:14.463Z,8.70
2018-02-03T03:58:40.435Z,9.23
2018-02-03T04:01:06.462Z,9.73
2018-02-03T04:03:33.187Z,9.40
2018-02-03T04:05:59.932Z,9.50
2018-02-03T04:08:25.908Z,8.77
2018-02-03T04:10:51.920Z,10.20
2018-02-03T04:13:17.868Z,8.60
2018-02-03T04:15:44.607Z,8.90
2018-02-03T04:18:10.561Z,10.77
2018-02-03T04:20:37.300Z,9.17
2018-02-03T04:23:04.052Z,8.87
2018-02-03T04:25:30.744Z,9.30
2018-02-03T04:27:56.755Z,10.30
2018-02-03T04:30:23.524Z,10.00
2018-02-03T04:32:49.512Z,9.50
2018-02-03T04:35:15.479Z,8.80
2018-02-03T04:37:42.251Z,9.90
2018-02-03T04:40:08.219Z,9.10
2018-02-03T04:42:34.403Z,9.77
2018-02-03T04:45:01.131Z,10.03
2018-02-03T04:47:27.103Z,9.47
2018-02-03T04:49:53.801Z,9.07
2018-02-03T04:52:19.793Z,9.40
2018-02-03T04:54:46.511Z,9.90
2018-02-03T04:57:12.495Z,10.00
2018-02-03T04:59:38.507Z,9.87
2018-02-03T05:02:04.520Z,9.53
2018-02-03T05:04:30.512Z,10.47
2018-02-03T05:06:56.460Z,10.37
2018-02-03T05:09:22.436Z,10.70
2018-02-03T05:11:48.427Z,10.17
2018-02-03T05:14:14.404Z,11.67
2018-02-03T05:16:40.410Z,10.60
2018-02-03T05:19:06.412Z,9.50
2018-02-03T05:21:32.396Z,10.40
2018-02-03T05:23:58.355Z,10.67
2018-02-03T05:26:24.304Z,9.47
2018-02-03T05:28:51.027Z,11.90
2018-02-03T05:31:17.024Z,10.53
2018-02-03T05:33:43.008Z,10.70
2018-02-03T05:36:08.946Z,12.17
2018-02-03T05:38:34.946Z,12.03
2018-02-03T05:41:00.901Z,12.17
2018-02-03T05:43:26.860Z,12.10
2018-02-03T05:45:52.867Z,12.27
2018-02-03T05:48:18.856Z,11.00
2018-02-03T05:50:44.820Z,11.90
2018-02-03T05:53:10.844Z,12.10
2018-02-03T05:55:36.845Z,11.63
2018-02-03T05:58:03.603Z,10.90
2018-02-03T06:00:30.296Z,11.70
2018-02-03T06:02:56.271Z,12.80
2018-02-03T06:05:22.448Z,11.40
2018-02-03T06:07:48.395Z,12.00
2018-02-03T06:10:14.376Z,11.90
2018-02-03T06:12:40.320Z,11.57
2018-02-03T06:15:06.329Z,11.40
2018-02-03T06:17:32.272Z,12.70
2018-02-03T06:19:58.227Z,11.87
2018-02-03T06:22:24.213Z,11.80
2018-02-03T06:24:50.163Z,12.87
2018-02-03T06:27:16.112Z,12.80
2018-02-03T06:29:42.108Z,12.33
2018-02-03T06:32:08.177Z,13.10
2018-02-03T06:34:34.204Z,12.73
2018-02-03T06:37:00.153Z,12.43
2018-02-03T06:39:26.156Z,12.80
2018-02-03T06:41:52.136Z,12.83
2018-02-03T06:44:18.112Z,12.40
2018-02-03T06:46:44.852Z,12.00
2018-02-03T06:49:10.807Z,12.97
2018-02-03T06:51:36.880Z,11.80
2018-02-03T06:54:02.824Z,12.97
2018-02-03T06:56:29.548Z,11.27
2018-02-03T06:58:55.541Z,13.60
2018-02-03T07:01:21.518Z,12.10
2018-02-03T07:03:47.468Z,12.53
2018-02-03T07:06:13.452Z,13.67
2018-02-03T07:08:39.423Z,13.07
2018-02-03T07:11:05.489Z,13.10
2018-02-03T07:13:31.443Z,12.50
2018-02-03T07:15:57.468Z,12.50
2018-02-03T07:18:23.491Z,13.90
2018-02-03T07:20:49.492Z,14.90
2018-02-03T07:23:16.192Z,14.47
2018-02-03T07:25:42.156Z,15.20
2018-02-03T07:28:08.175Z,16.10
2018-02-03T07:30:34.348Z,16.47
2018-02-03T07:33:01.036Z,14.50
2018-02-03T07:35:27.015Z,11.93
2018-02-03T07:37:52.971Z,13.20
2018-02-03T07:40:19.708Z,12.07
2018-02-03T07:42:45.647Z,12.03
2018-02-03T07:45:11.671Z,13.80
2018-02-03T07:47:37.663Z,14.50
2018-02-03T07:50:03.684Z,14.67
2018-02-03T07:52:29.664Z,13.20
2018-02-03T07:54:56.387Z,13.00
2018-02-03T07:57:22.400Z,12.70
2018-02-03T07:59:49.096Z,13.30
2018-02-03T08:02:15.124Z,13.10
2018-02-03T08:04:41.084Z,12.00
2018-02-03T08:07:07.095Z,11.60
2018-02-03T08:09:33.104Z,12.30
2018-02-03T08:11:59.051Z,13.60
2018-02-03T08:14:25.032Z,13.10
2018-02-03T08:16:51.025Z,13.80
2018-02-03T08:19:17.058Z,13.93
2018-02-03T08:21:43.012Z,13.17
2018-02-03T08:24:08.996Z,11.13
2018-02-03T08:26:35.008Z,11.73
2018-02-03T08:29:00.968Z,10.80
2018-02-03T08:31:26.944Z,12.20
2018-02-03T08:33:52.923Z,13.80
2018-02-03T08:36:18.912Z,11.70
2018-02-03T08:38:44.875Z,12.30
2018-02-03T08:41:10.868Z,12.03
2018-02-03T08:43:37.632Z,13.10
2018-02-03T08:46:03.596Z,13.33
2018-02-03T08:48:29.552Z,12.80
2018-02-03T08:50:55.525Z,12.80
2018-02-03T08:53:22.268Z,12.33
2018-02-03T08:55:48.988Z,14.17
2018-02-03T08:58:14.943Z,13.10
2018-02-03T09:00:40.975Z,12.67
2018-02-03T09:03:07.081Z,13.33
2018-02-03T09:05:33.075Z,14.20
2018-02-03T09:07:59.854Z,10.90
2018-02-03T09:10:25.856Z,11.30
2018-02-03T09:12:51.913Z,12.10
2018-02-03T09:15:17.912Z,11.47
2018-02-03T09:17:43.911Z,11.67
2018-02-03T09:20:09.940Z,12.80
2018-02-03T09:22:36.133Z,11.47
2018-02-03T09:25:02.189Z,10.70
2018-02-03T09:27:28.977Z,11.40
2018-02-03T09:29:55.000Z,12.50
2018-02-03T09:32:21.034Z,11.20
2018-02-03T09:34:47.828Z,11.17
2018-02-03T09:37:13.780Z,12.13
2018-02-03T09:39:39.725Z,8.43
2018-02-03T09:42:05.780Z,9.93
2018-02-03T09:44:32.479Z,9.50
2018-02-03T09:46:58.492Z,11.40
2018-02-03T09:49:24.448Z,10.13
2018-02-03T09:51:50.436Z,9.87
2018-02-03T09:54:16.399Z,10.00
2018-02-03T09:56:42.399Z,10.80
2018-02-03T09:59:08.470Z,9.33
2018-02-03T10:01:34.526Z,9.73
2018-02-03T10:04:00.486Z,10.53
2018-02-03T10:06:26.492Z,10.87
2018-02-03T10:08:52.479Z,10.27
2018-02-03T10:11:18.476Z,9.70
2018-02-03T10:13:44.427Z,9.03
2018-02-03T10:16:10.396Z,9.40
2018-02-03T10:18:36.453Z,9.07
2018-02-03T10:21:02.421Z,9.40
2018-02-03T10:23:28.508Z,9.27
2018-02-03T10:25:55.211Z,7.90
2018-02-03T10:28:21.183Z,7.57
2018-02-03T10:30:47.180Z,6.70
2018-02-03T10:33:13.155Z,7.40
2018-02-03T10:35:39.200Z,6.90
2018-02-03T10:38:05.228Z,7.07
2018-02-03T10:40:31.172Z,7.07
2018-02-03T10:42:57.155Z,8.20
2018-02-03T10:45:23.111Z,9.10
2018-02-03T10:47:49.138Z,7.47
2018-02-03T10:50:15.096Z,7.10
2018-02-03T10:52:41.080Z,6.03
2018-02-03T10:55:07.840Z,6.87
2018-02-03T10:57:33.864Z,7.13
2018-02-03T10:59:59.855Z,7.37
2018-02-03T11:02:25.803Z,6.70
2018-02-03T11:04:51.820Z,7.07
2018-02-03T11:07:17.784Z,7.10
2018-02-03T11:09:43.734Z,6.40
2018-02-03T11:12:09.768Z,8.07
2018-02-03T11:14:36.511Z,8.30
2018-02-03T11:17:02.563Z,7.03
2018-02-03T11:19:29.272Z,8.80
2018-02-03T11:21:55.316Z,8.70
2018-02-03T11:24:21.301Z,8.43
2018-02-03T11:26:47.996Z,9.43
2018-02-03T11:29:13.983Z,9.10
2018-02-03T11:31:40.693Z,9.53
2018-02-03T11:34:06.701Z,10.07
2018-02-03T11:36:32.665Z,10.37
2018-02-03T11:38:58.703Z,10.23
2018-02-03T11:41:24.652Z,10.50
2018-02-03T11:43:50.650Z,11.80
2018-02-03T11:46:16.633Z,10.10
2018-02-03T11:48:42.611Z,10.87
2018-02-03T11:51:08.596Z,10.10
2018-02-03T11:53:34.659Z,10.67
2018-02-03T11:56:01.392Z,10.70
2018-02-03T11:58:27.424Z,11.87
2018-02-03T12:00:53.408Z,10.00
2018-02-03T12:03:19.380Z,9.27
2018-02-03T12:05:45.431Z,10.33
2018-02-03T12:08:11.386Z,10.63
2018-02-03T12:10:37.400Z,9.40
2018-02-03T12:13:03.368Z,10.43
2018-02-03T12:15:30.107Z,9.67
2018-02-03T12:17:56.100Z,9.57
2018-02-03T12:20:22.089Z,9.67
2018-02-03T12:22:48.848Z,9.77
2018-02-03T12:25:15.544Z,9.77
2018-02-03T12:27:41.594Z,8.97
2018-02-03T12:30:07.592Z,9.30
2018-02-03T12:32:33.547Z,9.67
2018-02-03T12:35:00.407Z,8.97
2018-02-03T12:37:27.275Z,8.83
2018-02-03T12:39:53.248Z,9.67
2018-02-03T12:42:19.228Z,8.93
2018-02-03T12:44:45.198Z,10.27
2018-02-03T12:47:11.152Z,9.70
2018-02-03T12:49:37.224Z,8.87
2018-02-03T12:52:03.248Z,9.03
2018-02-03T12:54:29.999Z,9.77
2018-02-03T12:56:56.711Z,9.50
2018-02-03T12:59:22.724Z,9.83
2018-02-03T13:01:48.764Z,11.40
2018-02-03T13:04:14.732Z,10.10
2018-02-03T13:06:40.724Z,10.20
2018-02-03T13:09:06.754Z,11.80
2018-02-03T13:11:32.708Z,10.30
2018-02-03T13:13:58.708Z,10.90
2018-02-03T13:16:25.396Z,11.03
2018-02-03T13:18:51.382Z,10.00
2018-02-03T13:21:18.102Z,10.23
2018-02-03T13:23:44.067Z,10.80
2018-02-03T13:26:10.087Z,12.17
2018-02-03T13:28:36.061Z,10.43
2018-02-03T13:31:02.065Z,9.97
2018-02-03T13:33:28.025Z,9.73
2018-02-03T13:35:54.736Z,10.93
2018-02-03T13:38:20.713Z,12.17
2018-02-03T13:40:47.404Z,10.07
2018-02-03T13:43:13.361Z,11.17
2018-02-03T13:45:39.383Z,10.10
2018-02-03T13:48:05.349Z,11.20
2018-02-03T13:50:32.142Z,11.00
2018-02-03T13:52:58.144Z,11.20
2018-02-03T13:55:24.164Z,11.30
2018-02-03T13:57:50.120Z,11.27
2018-02-03T14:00:16.120Z,11.07
2018-02-03T14:02:42.068Z,11.50
2018-02-03T14:05:08.077Z,11.17
2018-02-03T14:07:34.111Z,11.30
2018-02-03T14:10:00.094Z,10.83
2018-02-03T14:12:26.104Z,10.53
2018-02-03T14:14:52.312Z,10.87
2018-02-03T14:17:18.310Z,12.17
2018-02-03T14:19:44.324Z,10.53
2018-02-03T14:22:10.299Z,9.53
2018-02-03T14:24:43.287Z,10.30
2018-02-03T14:27:09.401Z,10.80
2018-02-03T14:29:35.413Z,11.40
2018-02-03T14:32:01.441Z,9.77
2018-02-03T14:34:27.397Z,10.30
2018-02-03T14:36:53.428Z,10.33
2018-02-03T14:39:19.408Z,10.60
2018-02-03T14:41:45.361Z,10.50
2018-02-03T14:44:12.087Z,10.13
2018-02-03T14:46:38.086Z,9.70
2018-02-03T14:49:04.084Z,9.80
2018-02-03T14:51:30.792Z,9.90
2018-02-03T14:53:56.775Z,11.50
2018-02-03T14:56:23.521Z,11.37
2018-02-03T14:58:51.154Z,10.33
2018-02-03T15:01:17.103Z,11.03
2018-02-03T15:03:43.856Z,10.50
2018-02-03T15:06:09.892Z,11.87
2018-02-03T15:08:35.894Z,10.67
2018-02-03T15:11:01.853Z,11.53
2018-02-03T15:13:27.944Z,10.83
2018-02-03T15:15:53.932Z,11.70
2018-02-03T15:18:19.906Z,14.03
2018-02-03T15:20:46.595Z,10.20
2018-02-03T15:23:12.584Z,10.87
2018-02-03T15:25:38.564Z,10.60
2018-02-03T15:28:04.687Z,10.53
2018-02-03T15:30:30.676Z,11.10
2018-02-03T15:32:56.812Z,10.90
2018-02-03T15:35:22.799Z,11.90
2018-02-03T15:37:49.500Z,12.90
2018-02-03T15:40:15.481Z,12.57
2018-02-03T15:42:42.180Z,10.87
2018-02-03T15:45:08.225Z,10.80
2018-02-03T15:47:34.203Z,12.00
2018-02-03T15:50:00.936Z,10.67
2018-02-03T15:52:26.892Z,9.60
2018-02-03T15:54:53.636Z,10.13
2018-02-03T15:57:19.624Z,8.90
2018-02-03T15:59:45.608Z,10.33
2018-02-03T16:02:11.607Z,8.80
2018-02-03T16:04:37.579Z,8.87
2018-02-03T16:07:03.519Z,10.33
2018-02-03T16:09:30.240Z,10.93
2018-02-03T16:11:56.225Z,10.43
2018-02-03T16:14:22.216Z,10.10
2018-02-03T16:16:48.201Z,9.53
2018-02-03T16:19:14.164Z,9.33
2018-02-03T16:21:40.188Z,10.00
2018-02-03T16:24:06.151Z,9.70
2018-02-03T16:26:32.157Z,8.50
2018-02-03T16:28:58.218Z,10.57
2018-02-03T16:31:24.225Z,11.63
2018-02-03T16:33:50.200Z,11.07
2018-02-03T16:36:16.212Z,11.40
2018-02-03T16:38:42.200Z,14.67
2018-02-03T16:41:08.896Z,17.50
2018-02-03T16:43:34.912Z,17.70
2018-02-03T16:46:00.884Z,18.70
2018-02-03T16:48:27.645Z,19.00
2018-02-03T16:50:53.730Z,18.63
2018-02-03T16:53:19.694Z,19.37
2018-02-03T16:55:45.648Z,17.50
2018-02-03T16:58:11.633Z,18.03
2018-02-03T17:00:38.380Z,19.03
2018-02-03T17:03:05.071Z,18.73
2018-02-03T17:05:31.021Z,18.50
2018-02-03T17:07:57.041Z,17.43
2018-02-03T17:10:23.048Z,15.20
2018-02-03T17:12:49.844Z,14.63
2018-02-03T17:15:15.863Z,11.83
2018-02-03T17:17:42.547Z,13.67
2018-02-03T17:20:08.507Z,13.47
2018-02-03T17:22:35.240Z,13.13
2018-02-03T17:25:01.945Z,12.33
2018-02-03T17:27:28.020Z,12.63
2018-02-03T17:29:54.073Z,12.03
2018-02-03T17:32:20.067Z,12.27
2018-02-03T17:34:46.037Z,13.00
2018-02-03T17:37:18.208Z,12.83
2018-02-03T17:39:44.903Z,11.70
2018-02-03T17:42:11.612Z,12.20
2018-02-03T17:44:37.580Z,12.03
2018-02-03T17:47:05.375Z,12.47
2018-02-03T17:49:32.067Z,13.27
2018-02-03T17:51:58.121Z,12.63
2018-02-03T17:54:24.129Z,11.87
2018-02-03T17:56:56.353Z,12.43
2018-02-03T17:59:22.392Z,12.00
2018-02-03T18:01:48.376Z,13.73
2018-02-03T18:04:14.380Z,13.43
2018-02-03T18:06:46.520Z,13.33
2018-02-03T18:09:12.499Z,13.00
2018-02-03T18:11:38.452Z,11.43
2018-02-03T18:14:05.175Z,12.47
2018-02-03T18:16:31.164Z,10.07
2018-02-03T18:18:57.128Z,11.70
2018-02-03T18:21:23.172Z,10.77
2018-02-03T18:23:49.140Z,10.60
2018-02-03T18:26:15.848Z,10.00
2018-02-03T18:28:41.842Z,9.43
2018-02-03T18:31:08.589Z,10.27
2018-02-03T18:33:35.276Z,10.83
2018-02-03T18:36:01.295Z,9.50
2018-02-03T18:38:27.260Z,9.10
2018-02-03T18:40:53.253Z,7.93
2018-02-03T18:43:19.992Z,8.10
2018-02-03T18:45:45.987Z,11.27
2018-02-03T18:48:11.928Z,9.13
2018-02-03T18:50:37.879Z,12.60
2018-02-03T18:53:03.843Z,18.03
2018-02-03T18:55:30.536Z,36.10
2018-02-03T18:57:56.558Z,11.63
2018-02-03T19:00:22.551Z,11.60
2018-02-03T19:02:48.540Z,12.87
2018-02-03T19:05:14.527Z,16.30
2018-02-03T19:07:40.475Z,15.07
2018-02-03T19:10:07.212Z,11.10
2018-02-03T19:12:33.185Z,10.80
2018-02-03T19:14:59.342Z,10.20
2018-02-03T19:17:25.335Z,10.33
2018-02-03T19:19:52.057Z,11.70
2018-02-03T19:22:18.013Z,9.83
2018-02-03T19:24:44.043Z,14.50
2018-02-03T19:27:09.994Z,23.30
2018-02-03T19:29:36.728Z,36.93
2018-02-03T19:32:02.696Z,28.70
2018-02-03T19:34:29.495Z,13.10
2018-02-03T19:36:55.521Z,38.73
2018-02-03T19:39:21.512Z,22.40
2018-02-03T19:41:48.244Z,19.97
2018-02-03T19:44:14.283Z,14.83
2018-02-03T19:46:40.272Z,37.47
2018-02-03T19:49:06.273Z,13.63
2018-02-03T19:51:33.028Z,13.10
2018-02-03T19:53:59.026Z,13.23
2018-02-03T19:56:25.084Z,12.80
2018-02-03T19:58:51.319Z,11.97
2018-02-03T20:01:17.336Z,13.70
2018-02-03T20:03:43.356Z,11.97
2018-02-03T20:06:09.382Z,12.67
2018-02-03T20:08:35.408Z,12.13
2018-02-03T20:11:02.251Z,11.60
2018-02-03T20:13:29.024Z,12.53
2018-02-03T20:15:55.045Z,10.47
2018-02-03T20:18:21.980Z,11.77
2018-02-03T20:20:47.979Z,11.20
2018-02-03T20:23:13.929Z,11.07
2018-02-03T20:25:39.943Z,12.20
2018-02-03T20:28:05.939Z,12.43
2018-02-03T20:30:32.678Z,11.57
2018-02-03T20:32:58.649Z,15.57
2018-02-03T20:35:24.652Z,12.60
2018-02-03T20:37:50.679Z,12.33
2018-02-03T20:40:16.639Z,12.57
2018-02-03T20:42:43.367Z,11.50
2018-02-03T20:45:09.430Z,12.53
2018-02-03T20:47:36.215Z,14.30
2018-02-03T20:50:02.215Z,12.30
2018-02-03T20:52:28.292Z,12.80
2018-02-03T20:54:54.372Z,10.60
2018-02-03T20:57:20.356Z,15.43
2018-02-03T20:59:46.355Z,11.30
2018-02-03T21:02:12.377Z,11.80
2018-02-03T21:04:38.364Z,11.40
2018-02-03T21:07:04.409Z,12.00
2018-02-03T21:09:30.356Z,10.90
2018-02-03T21:11:56.442Z,11.40
2018-02-03T21:14:22.391Z,13.77
2018-02-03T21:16:49.179Z,12.20
2018-02-03T21:19:15.132Z,15.03
2018-02-03T21:21:41.220Z,12.83
2018-02-03T21:24:07.955Z,12.73
2018-02-03T21:26:34.002Z,11.90
2018-02-03T21:29:00.035Z,12.33
2018-02-03T21:31:26.107Z,14.67
2018-02-03T21:33:52.068Z,14.60
2018-02-03T21:36:18.058Z,13.93
2018-02-03T21:38:44.768Z,11.43
2018-02-03T21:41:10.803Z,11.07
2018-02-03T21:43:36.766Z,11.57
2018-02-03T21:46:02.752Z,13.00
2018-02-03T21:48:28.779Z,15.20
2018-02-03T21:50:54.881Z,14.40
2018-02-03T21:53:20.877Z,14.50
2018-02-03T21:55:46.855Z,13.17
2018-02-03T21:58:12.889Z,13.60
2018-02-03T22:00:38.891Z,12.70
2018-02-03T22:03:04.851Z,17.90
2018-02-03T22:05:30.859Z,12.73
2018-02-03T22:07:56.906Z,11.30
2018-02-03T22:10:22.914Z,11.67
2018-02-03T22:12:48.936Z,13.10
2018-02-03T22:15:14.955Z,13.40
2018-02-03T22:17:41.706Z,11.53
2018-02-03T22:20:08.448Z,12.40
2018-02-03T22:22:34.428Z,12.13
2018-02-03T22:25:00.471Z,11.70
2018-02-03T22:27:26.542Z,12.53
2018-02-03T22:29:52.545Z,11.03
2018-02-03T22:32:18.570Z,11.50
2018-02-03T22:34:44.544Z,11.20
2018-02-03T22:37:10.520Z,10.80
2018-02-03T22:39:37.231Z,10.73
2018-02-03T22:42:03.217Z,12.40
2018-02-03T22:44:29.931Z,10.90
2018-02-03T22:46:55.923Z,11.70
2018-02-03T22:49:21.927Z,13.27
2018-02-03T22:51:47.872Z,10.67
2018-02-03T22:54:14.617Z,11.50
2018-02-03T22:56:40.608Z,10.73
2018-02-03T22:59:06.589Z,11.80
2018-02-03T23:01:32.575Z,11.20
2018-02-03T23:03:58.544Z,10.87
2018-02-03T23:06:24.627Z,11.30
2018-02-03T23:08:50.596Z,11.27
2018-02-03T23:11:16.535Z,12.03
2018-02-03T23:13:42.539Z,13.23
2018-02-03T23:16:08.502Z,12.30
2018-02-03T23:18:34.493Z,11.77
2018-02-03T23:21:01.228Z,10.23
2018-02-03T23:23:27.195Z,13.00
2018-02-03T23:25:53.153Z,12.07
2018-02-03T23:28:19.164Z,12.10
2018-02-03T23:30:45.148Z,11.70
2018-02-03T23:33:11.108Z,11.43
2018-02-03T23:35:37.064Z,11.63
2018-02-03T23:38:03.036Z,11.00
2018-02-03T23:40:28.984Z,12.17
2018-02-03T23:42:55.000Z,12.40
2018-02-03T23:45:20.956Z,11.97
2018-02-03T23:47:46.927Z,12.23
2018-02-03T23:50:13.658Z,14.97
2018-02-03T23:52:39.656Z,12.60
2018-02-03T23:55:05.604Z,12.90
2018-02-03T23:57:31.560Z,12.13
2018-02-03T23:59:57.568Z,12.90
